Time;durP1;ratioP1;P1;durP2;ratioP2;P2;SDS_P1;SDS_P2;PMS_P1;PMS_P2;Temp;Humidity;BMP_temperature;BMP_pressure;BME280_temperature;BME280_humidity;BME280_pressure;Samples;Min_cycle;Max_cycle;Signal;HPM_P1;HPM_P2
2022/03/26 00:00:04;;;;;;;43.88;23.23;;;;;;;7.28;68.43;103071.16;5095445;28;20035;-72
2022/03/26 00:02:29;;;;;;;44.60;23.27;;;;;;;7.24;68.66;103080.56;5095114;28;20062;-72
2022/03/26 00:04:54;;;;;;;47.60;23.67;;;;;;;7.18;68.41;103075.22;5094268;28;20088;-71
2022/03/26 00:07:20;;;;;;;43.60;21.45;;;;;;;7.14;69.27;103078.59;5094904;28;20468;-72
2022/03/26 00:09:46;;;;;;;43.40;23.10;;;;;;;7.07;69.43;103081.84;5094756;28;20031;-71
2022/03/26 00:12:11;;;;;;;40.08;23.25;;;;;;;7.03;68.94;103074.84;5093852;28;20401;-72
2022/03/26 00:14:36;;;;;;;40.30;22.98;;;;;;;6.98;69.77;103068.63;5094970;28;20028;-72
2022/03/26 00:17:04;;;;;;;42.75;23.35;;;;;;;6.92;69.86;103071.94;5095094;28;20024;-71
2022/03/26 00:19:30;;;;;;;49.38;25.00;;;;;;;6.89;70.39;103077.03;5093788;28;20036;-71
2022/03/26 00:21:55;;;;;;;44.95;24.35;;;;;;;6.85;70.15;103074.31;5094684;28;20540;-71
2022/03/26 00:24:23;;;;;;;50.53;22.75;;;;;;;6.80;69.53;103077.69;5094833;28;20103;-71
2022/03/26 00:26:48;;;;;;;46.45;25.80;;;;;;;6.76;70.67;103070.63;5093602;28;20049;-71
2022/03/26 00:29:14;;;;;;;45.17;23.92;;;;;;;6.72;70.89;103081.75;5094339;28;20109;-71
2022/03/26 00:31:39;;;;;;;47.28;23.60;;;;;;;6.68;71.30;103072.16;5094161;28;20032;-71
2022/03/26 00:34:05;;;;;;;43.80;24.52;;;;;;;6.60;70.96;103068.44;5094021;28;20030;-72
2022/03/26 00:36:31;;;;;;;46.13;24.50;;;;;;;6.47;71.28;103048.19;5094238;28;20101;-71
2022/03/26 00:38:57;;;;;;;49.55;24.80;;;;;;;6.51;70.92;103074.25;5094337;28;20024;-71
2022/03/26 00:41:25;;;;;;;42.38;24.17;;;;;;;6.44;71.85;103068.81;5093338;28;20074;-72
2022/03/26 00:43:51;;;;;;;46.92;25.33;;;;;;;6.39;71.11;103073.00;5094382;28;20023;-71
2022/03/26 00:46:16;;;;;;;44.38;23.75;;;;;;;6.33;71.75;103073.72;5094056;28;20032;-72
2022/03/26 00:48:43;;;;;;;45.47;23.15;;;;;;;6.26;71.77;103070.06;5092589;28;20043;-71
2022/03/26 00:51:08;;;;;;;43.83;23.90;;;;;;;6.21;72.40;103074.25;5093817;28;20032;-72
2022/03/26 00:53:34;;;;;;;43.35;22.65;;;;;;;6.18;72.51;103071.56;5093175;28;20027;-71
2022/03/26 00:55:59;;;;;;;47.15;24.45;;;;;;;6.11;72.00;103072.16;5093885;28;20059;-71
2022/03/26 00:58:25;;;;;;;47.15;24.27;;;;;;;6.07;72.68;103065.16;5093941;28;20456;-71
2022/03/26 01:00:50;;;;;;;46.97;23.92;;;;;;;6.04;73.59;103067.66;5093005;28;20055;-71
2022/03/26 01:03:18;;;;;;;46.42;23.70;;;;;;;6.02;72.98;103075.38;5093845;28;20032;-71
2022/03/26 01:05:44;;;;;;;45.22;23.40;;;;;;;5.97;72.87;103071.75;5093805;28;20039;-71
2022/03/26 01:08:10;;;;;;;45.65;23.75;;;;;;;5.91;72.76;103062.88;5092889;28;20036;-71
2022/03/26 01:10:36;;;;;;;48.15;24.33;;;;;;;5.85;73.08;103064.47;5093677;28;20403;-71
2022/03/26 01:13:02;;;;;;;46.22;23.48;;;;;;;5.80;73.69;103066.03;5094070;28;20028;-71
2022/03/26 01:15:28;;;;;;;48.45;25.65;;;;;;;5.76;74.41;103064.16;5092860;28;20313;-71
2022/03/26 01:17:54;;;;;;;48.55;23.25;;;;;;;5.74;74.48;103065.81;5093612;28;20028;-71
2022/03/26 01:20:19;;;;;;;47.53;24.63;;;;;;;5.71;73.77;103059.66;5093416;28;20020;-71
2022/03/26 01:22:45;;;;;;;48.28;24.10;;;;;;;5.65;74.04;103062.94;5092726;28;20024;-71
2022/03/26 01:25:11;;;;;;;49.13;23.88;;;;;;;5.64;74.67;103059.47;5093272;28;20102;-71
2022/03/26 01:27:37;;;;;;;47.08;24.25;;;;;;;5.62;74.93;103062.81;5093595;28;20161;-72
2022/03/26 01:30:03;;;;;;;48.67;23.35;;;;;;;5.53;74.21;103044.44;5092684;28;20032;-72
2022/03/26 01:32:29;;;;;;;45.17;23.55;;;;;;;5.56;75.05;103054.91;5093143;28;20635;-71
2022/03/26 01:34:54;;;;;;;44.70;22.60;;;;;;;5.53;74.37;103054.78;5093053;28;20539;-71
2022/03/26 01:37:19;;;;;;;45.97;22.23;;;;;;;5.49;74.76;103060.66;5092281;28;20032;-71
2022/03/26 01:39:45;;;;;;;44.38;23.13;;;;;;;5.48;75.40;103057.22;5092980;28;20041;-71
2022/03/26 01:42:10;;;;;;;44.78;23.85;;;;;;;5.45;74.85;103066.56;5093210;28;20463;-72
2022/03/26 01:44:37;;;;;;;47.50;24.30;;;;;;;5.40;74.99;103064.72;5092449;28;20119;-72
2022/03/26 01:47:03;;;;;;;44.88;23.52;;;;;;;5.33;75.69;103057.59;5093225;28;20121;-71
2022/03/26 01:49:30;;;;;;;45.88;23.67;;;;;;;5.35;76.22;103061.09;5092775;28;20450;-71
2022/03/26 01:51:55;;;;;;;49.60;23.45;;;;;;;5.30;75.88;103060.09;5091985;28;20044;-71
2022/03/26 01:54:21;;;;;;;45.30;22.23;;;;;;;5.28;76.27;103073.78;5092510;28;20101;-72
2022/03/26 01:56:46;;;;;;;43.13;23.20;;;;;;;5.25;76.34;103071.97;5092179;28;20110;-71
2022/03/26 01:59:12;;;;;;;43.78;23.75;;;;;;;5.16;77.15;103058.72;5092880;28;20042;-72
2022/03/26 02:01:37;;;;;;;40.85;23.27;;;;;;;5.21;77.01;103067.53;5092531;28;20043;-71
2022/03/26 02:04:08;;;;;;;43.13;23.63;;;;;;;5.19;76.96;103069.16;5092347;28;20680;-71
2022/03/26 02:06:34;;;;;;;47.80;23.77;;;;;;;5.15;77.68;103059.53;5092394;28;20035;-71
2022/03/26 02:09:05;;;;;;;49.50;22.95;;;;;;;5.15;78.10;103067.31;5092336;28;20030;-71
2022/03/26 02:11:32;;;;;;;49.30;23.33;;;;;;;5.10;77.44;103054.22;5091595;28;20403;-71
2022/03/26 02:13:58;;;;;;;47.38;23.90;;;;;;;5.15;77.73;103062.13;5092495;28;20476;-71
2022/03/26 02:16:25;;;;;;;44.63;22.95;;;;;;;5.13;78.34;103068.94;5092310;28;20075;-71
2022/03/26 02:18:51;;;;;;;47.47;24.27;;;;;;;5.12;78.59;103067.19;5091509;28;20081;-71
2022/03/26 02:21:17;;;;;;;46.15;23.70;;;;;;;5.09;78.90;103061.91;5092293;28;20038;-71
2022/03/26 02:23:44;;;;;;;42.83;22.10;;;;;;;5.08;78.24;103066.22;5092114;28;20081;-72
2022/03/26 02:26:09;;;;;;;41.08;23.08;;;;;;;5.06;78.53;103065.28;5091357;28;20032;-71
2022/03/26 02:28:35;;;;;;;43.08;23.35;;;;;;;5.05;78.53;103058.34;5092453;28;20024;-71
2022/03/26 02:31:00;;;;;;;49.22;24.30;;;;;;;5.03;78.62;103062.56;5092147;28;20077;-72
2022/03/26 02:33:26;;;;;;;46.75;22.75;;;;;;;5.01;78.72;103053.91;5091286;28;20104;-71
2022/03/26 02:35:51;;;;;;;45.28;22.98;;;;;;;4.96;78.95;103046.81;5092021;28;20035;-71
2022/03/26 02:38:17;;;;;;;46.38;23.15;;;;;;;5.02;78.73;103060.81;5092081;28;20103;-71
2022/03/26 02:40:45;;;;;;;46.28;22.85;;;;;;;4.97;79.10;103062.38;5091413;28;20024;-71
2022/03/26 02:43:10;;;;;;;46.05;23.52;;;;;;;4.93;78.74;103063.09;5092042;28;20111;-71
2022/03/26 02:45:35;;;;;;;50.15;23.10;;;;;;;4.84;79.29;103066.25;5092216;28;20115;-71
2022/03/26 02:48:01;;;;;;;44.72;22.45;;;;;;;4.86;79.80;103059.41;5090679;28;20430;-71
2022/03/26 02:50:26;;;;;;;45.20;23.17;;;;;;;4.82;79.21;103061.84;5091560;28;20024;-71
2022/03/26 02:52:51;;;;;;;45.38;22.80;;;;;;;4.83;79.82;103064.47;5091684;28;20020;-71
2022/03/26 02:55:17;;;;;;;46.20;22.98;;;;;;;4.81;79.81;103067.84;5090498;28;20032;-71
2022/03/26 02:57:46;;;;;;;45.42;23.95;;;;;;;4.78;79.52;103058.25;5111164;28;20486;-71
2022/03/26 03:00:14;;;;;;;39.67;22.98;;;;;;;4.78;79.80;103060.84;5111155;28;20054;-71
2022/03/26 03:02:40;;;;;;;47.40;24.23;;;;;;;4.76;79.59;103056.44;5112077;28;20059;-71
2022/03/26 03:05:06;;;;;;;41.67;23.30;;;;;;;4.74;79.68;103063.25;5112255;28;20023;-71
2022/03/26 03:07:32;;;;;;;46.53;23.17;;;;;;;4.70;79.74;103055.38;5111390;28;20034;-71
2022/03/26 03:09:58;;;;;;;48.42;22.77;;;;;;;4.64;80.42;103062.94;5111947;28;20114;-71
2022/03/26 03:12:23;;;;;;;47.22;23.38;;;;;;;4.63;80.16;103057.72;5111219;28;20112;-71
2022/03/26 03:14:48;;;;;;;44.65;21.80;;;;;;;4.54;80.58;103040.16;5111227;28;20023;-71
2022/03/26 03:17:13;;;;;;;41.17;22.35;;;;;;;4.59;80.73;103056.72;5111742;28;20089;-71
2022/03/26 03:19:38;;;;;;;41.13;22.42;;;;;;;4.56;81.18;103054.00;5111668;28;20031;-71
2022/03/26 03:22:04;;;;;;;47.63;23.35;;;;;;;4.54;80.60;103057.38;5111520;28;20378;-71
2022/03/26 03:24:29;;;;;;;40.95;21.30;;;;;;;4.51;80.18;103062.41;5111858;28;20092;-71
2022/03/26 03:26:55;;;;;;;47.00;22.75;;;;;;;4.44;80.56;103067.34;5111656;28;20023;-71
2022/03/26 03:29:20;;;;;;;44.25;24.17;;;;;;;4.40;80.94;103068.06;5110977;28;20026;-71
2022/03/26 03:31:48;;;;;;;48.20;25.48;;;;;;;4.35;80.99;103056.69;5111797;28;20185;-71
2022/03/26 03:34:13;;;;;;;48.53;24.52;;;;;;;4.33;81.59;103063.50;5111685;28;20123;-71
2022/03/26 03:36:39;;;;;;;51.10;23.33;;;;;;;4.22;81.56;103047.59;5110850;28;20088;-71
2022/03/26 03:39:04;;;;;;;46.20;23.08;;;;;;;4.23;81.19;103049.34;5111988;28;20063;-71
2022/03/26 03:41:29;;;;;;;42.85;22.25;;;;;;;4.26;81.61;103060.63;5111599;28;20055;-71
2022/03/26 03:43:54;;;;;;;46.97;23.63;;;;;;;4.24;81.98;103057.97;5111176;28;20036;-71
2022/03/26 03:46:20;;;;;;;48.03;22.70;;;;;;;4.20;82.06;103058.69;5111374;28;20102;-72
2022/03/26 03:48:45;;;;;;;45.72;23.83;;;;;;;4.15;82.34;103065.38;5111615;28;20425;-71
2022/03/26 03:51:10;;;;;;;41.08;21.98;;;;;;;4.12;82.55;103057.50;5110583;28;20035;-71
2022/03/26 03:53:35;;;;;;;48.90;22.17;;;;;;;4.11;82.67;103064.38;5112014;28;20024;-71
2022/03/26 03:56:01;;;;;;;50.17;22.92;;;;;;;4.07;82.15;103062.50;5111809;28;20081;-71
2022/03/26 03:58:26;;;;;;;43.60;22.15;;;;;;;4.08;82.85;103071.13;5110685;28;20538;-71
2022/03/26 04:00:51;;;;;;;46.40;23.30;;;;;;;4.05;82.20;103076.16;5111533;28;20111;-71
2022/03/26 04:03:17;;;;;;;48.92;22.95;;;;;;;4.03;82.59;103072.66;5111527;28;20445;-71
2022/03/26 04:05:43;;;;;;;46.28;22.73;;;;;;;3.91;83.38;103063.59;5110557;28;20020;-71
2022/03/26 04:08:08;;;;;;;40.25;21.83;;;;;;;3.99;83.05;103075.13;5111936;28;20443;-71
2022/03/26 04:10:33;;;;;;;49.97;22.65;;;;;;;4.01;82.63;103079.44;5110561;28;20032;-71
2022/03/26 04:12:59;;;;;;;48.45;23.27;;;;;;;3.95;83.21;103073.22;5111422;28;20387;-71
2022/03/26 04:15:24;;;;;;;48.15;23.50;;;;;;;3.93;82.79;103074.88;5111252;28;20015;-71
2022/03/26 04:17:52;;;;;;;47.40;23.83;;;;;;;3.94;83.25;103075.75;5110492;28;20031;-71
2022/03/26 04:20:17;;;;;;;52.45;24.67;;;;;;;3.91;83.82;103084.25;5111318;28;20016;-71
2022/03/26 04:22:42;;;;;;;51.35;24.02;;;;;;;3.88;83.51;103080.66;5111360;28;20039;-71
2022/03/26 04:25:08;;;;;;;41.75;23.20;;;;;;;3.86;84.20;103088.34;5112407;28;20059;-71
2022/03/26 04:27:34;;;;;;;45.15;23.98;;;;;;;3.84;83.92;103083.94;5114844;28;20023;-71
2022/03/26 04:29:59;;;;;;;51.85;24.27;;;;;;;3.78;84.48;103076.84;5114663;28;20399;-71
2022/03/26 04:32:25;;;;;;;50.45;23.00;;;;;;;3.74;84.51;103082.69;5113867;28;20034;-71
2022/03/26 04:34:50;;;;;;;49.10;23.60;;;;;;;3.71;84.49;103078.28;5114710;27;20076;-71
2022/03/26 04:37:15;;;;;;;44.55;23.33;;;;;;;3.72;84.50;103074.88;5114839;28;20032;-71
2022/03/26 04:39:41;;;;;;;47.00;24.05;;;;;;;3.72;84.39;103074.00;5113889;28;20020;-71
2022/03/26 04:42:06;;;;;;;52.42;24.73;;;;;;;3.72;84.68;103076.59;5114989;28;20497;-71
2022/03/26 04:44:32;;;;;;;48.50;23.27;;;;;;;3.68;84.92;103079.88;5114551;28;20467;-71
2022/03/26 04:46:57;;;;;;;39.53;22.00;;;;;;;3.65;84.43;103074.56;5113507;28;20044;-71
2022/03/26 04:49:23;;;;;;;52.38;24.80;;;;;;;3.66;85.26;103076.31;5114155;28;20085;-71
2022/03/26 04:51:49;;;;;;;46.88;23.30;;;;;;;3.64;85.34;103072.81;5114400;28;20538;-71
2022/03/26 04:54:14;;;;;;;46.85;22.52;;;;;;;3.61;85.13;103077.84;5113761;28;20102;-71
2022/03/26 04:56:39;;;;;;;44.17;22.65;;;;;;;3.57;85.31;103068.25;5114384;28;20028;-71
2022/03/26 04:59:05;;;;;;;50.03;24.20;;;;;;;3.55;85.40;103070.75;5114658;28;20022;-71
2022/03/26 05:01:31;;;;;;;47.75;23.40;;;;;;;3.55;85.50;103070.75;5113472;28;20035;-71
2022/03/26 05:03:56;;;;;;;46.90;23.23;;;;;;;3.52;84.92;103074.06;5114145;28;20023;-72
2022/03/26 05:06:21;;;;;;;45.90;22.92;;;;;;;3.52;85.58;103075.78;5114348;28;20467;-71
2022/03/26 05:08:48;;;;;;;47.17;23.90;;;;;;;3.49;85.25;103076.53;5113538;28;20031;-71
2022/03/26 05:11:14;;;;;;;44.25;23.45;;;;;;;3.45;85.47;103072.06;5114008;28;20183;-71
2022/03/26 05:13:39;;;;;;;49.03;24.08;;;;;;;3.42;86.12;103074.50;5113645;28;20126;-71
2022/03/26 05:16:04;;;;;;;51.05;24.30;;;;;;;3.41;86.19;103077.03;5114009;28;20035;-71
2022/03/26 05:18:29;;;;;;;50.53;23.73;;;;;;;3.40;85.82;103075.25;5113817;28;20070;-71
2022/03/26 05:20:56;;;;;;;43.05;22.88;;;;;;;3.36;85.99;103074.25;5112997;28;20376;-71
2022/03/26 05:23:22;;;;;;;45.92;23.17;;;;;;;3.35;86.07;103089.66;5113815;28;20124;-71
2022/03/26 05:25:47;;;;;;;45.05;21.92;;;;;;;3.34;86.41;103090.50;5113898;28;20494;-71
2022/03/26 05:28:12;;;;;;;47.28;23.17;;;;;;;3.32;86.33;103089.53;5113013;28;20050;-71
2022/03/26 05:30:38;;;;;;;47.95;22.75;;;;;;;3.31;86.26;103090.38;5113644;28;20031;-71
2022/03/26 05:33:03;;;;;;;46.63;22.30;;;;;;;3.22;86.31;103077.97;5113886;28;20470;-71
2022/03/26 05:35:28;;;;;;;44.90;21.95;;;;;;;3.31;86.18;103098.97;5112635;28;20035;-71
2022/03/26 05:37:53;;;;;;;50.60;23.40;;;;;;;3.31;86.61;103103.25;5113646;28;20020;-71
2022/03/26 05:40:20;;;;;;;47.92;22.33;;;;;;;3.30;86.24;103104.94;5113549;28;20122;-71
2022/03/26 05:42:47;;;;;;;43.90;22.75;;;;;;;3.31;87.24;103098.09;5112732;28;20037;-71
2022/03/26 05:45:12;;;;;;;49.83;24.15;;;;;;;3.30;86.53;103104.94;5113352;28;20031;-71
2022/03/26 05:47:38;;;;;;;46.17;22.27;;;;;;;3.30;86.63;103102.34;5112956;28;20101;-71
2022/03/26 05:50:06;;;;;;;54.22;22.55;;;;;;;3.35;86.92;103107.72;5112971;28;20067;-71
2022/03/26 05:52:31;;;;;;;43.20;23.58;;;;;;;3.29;87.17;103103.16;5112988;28;20440;-71
2022/03/26 05:54:57;;;;;;;46.90;22.75;;;;;;;3.37;86.56;103114.72;5113354;28;20023;-71
2022/03/26 05:57:22;;;;;;;46.60;23.10;;;;;;;3.39;86.57;103113.06;5112280;28;20036;-70
2022/03/26 05:59:48;;;;;;;47.72;22.45;;;;;;;3.44;87.16;103119.31;5112918;28;20524;-71
2022/03/26 06:02:14;;;;;;;45.45;23.77;;;;;;;3.48;86.79;103125.47;5112970;28;20049;-71
2022/03/26 06:04:40;;;;;;;51.33;23.58;;;;;;;3.52;87.22;103130.81;5112320;28;20023;-71
2022/03/26 06:07:07;;;;;;;49.22;23.75;;;;;;;3.56;87.30;103133.50;5113398;28;20027;-71
2022/03/26 06:09:33;;;;;;;46.17;23.98;;;;;;;3.61;87.55;103140.63;5112888;28;20028;-70
2022/03/26 06:11:58;;;;;;;53.38;23.42;;;;;;;3.65;87.75;103134.78;5112085;28;20024;-71
2022/03/26 06:14:26;;;;;;;48.22;24.27;;;;;;;3.69;87.01;103136.66;5112672;28;20487;-71
2022/03/26 06:16:51;;;;;;;58.63;23.17;;;;;;;3.76;87.41;103135.25;5112818;28;20031;-71
2022/03/26 06:19:17;;;;;;;54.78;24.70;;;;;;;3.84;87.07;103133.84;5111819;28;20024;-71
2022/03/26 06:21:42;;;;;;;50.90;24.67;;;;;;;3.92;87.31;103131.56;5112741;28;20023;-71
2022/03/26 06:24:08;;;;;;;54.88;25.25;;;;;;;4.03;86.85;103127.75;5112232;28;20360;-72
2022/03/26 06:26:34;;;;;;;49.10;23.15;;;;;;;4.10;86.34;103139.19;5112477;28;20019;-71
2022/03/26 06:29:00;;;;;;;50.85;23.77;;;;;;;4.18;86.23;103130.03;5112506;28;20046;-71
2022/03/26 06:31:25;;;;;;;51.30;23.83;;;;;;;4.27;85.53;103126.94;5111534;28;20477;-71
2022/03/26 06:33:50;;;;;;;54.28;25.13;;;;;;;4.35;86.05;103130.69;5112443;28;20085;-71
2022/03/26 06:36:16;;;;;;;54.40;25.13;;;;;;;4.40;85.27;103130.06;5112541;28;20027;-71
2022/03/26 06:38:44;;;;;;;48.22;24.38;;;;;;;4.46;85.29;103130.28;5111573;28;20019;-71
2022/03/26 06:41:09;;;;;;;54.38;24.88;;;;;;;4.58;84.93;103140.22;5112618;28;20028;-71
2022/03/26 06:43:37;;;;;;;51.95;26.05;;;;;;;4.71;84.67;103138.97;5112565;28;20024;-71
2022/03/26 06:46:02;;;;;;;57.72;25.65;;;;;;;4.82;84.23;103144.53;5111724;28;20027;-71
2022/03/26 06:48:27;;;;;;;54.83;26.08;;;;;;;4.90;84.43;103149.19;5111226;28;20044;-71
2022/03/26 06:50:53;;;;;;;52.92;24.75;;;;;;;4.99;82.59;103148.63;5111932;28;20114;-71
2022/03/26 06:53:20;;;;;;;53.42;26.10;;;;;;;5.06;82.63;103144.53;5111542;28;20483;-71
2022/03/26 06:55:46;;;;;;;49.50;25.73;;;;;;;5.16;82.01;103151.81;5112232;28;20012;-71
2022/03/26 06:58:11;;;;;;;51.45;24.85;;;;;;;5.22;81.31;103152.03;5112064;28;20031;-71
2022/03/26 07:00:37;;;;;;;51.35;26.10;;;;;;;5.29;81.27;103147.94;5111381;28;20034;-71
2022/03/26 07:03:02;;;;;;;47.88;24.73;;;;;;;5.38;81.22;103154.31;5112539;28;20069;-71
2022/03/26 07:05:27;;;;;;;51.30;25.08;;;;;;;5.46;80.30;103157.19;5112172;28;20023;-71
2022/03/26 07:07:53;;;;;;;45.08;24.00;;;;;;;5.54;80.02;103154.88;5111421;28;20379;-71
2022/03/26 07:10:18;;;;;;;45.80;25.27;;;;;;;5.55;79.57;103141.09;5111878;28;20112;-71
2022/03/26 07:12:43;;;;;;;50.33;24.98;;;;;;;5.76;79.18;103159.94;5111902;28;20383;-71
2022/03/26 07:15:09;;;;;;;48.97;27.02;;;;;;;5.94;79.75;103157.09;5111398;28;20037;-71
2022/03/26 07:17:38;;;;;;;54.40;26.23;;;;;;;6.13;79.20;103153.41;5112137;28;20080;-71
2022/03/26 07:20:04;;;;;;;56.60;26.42;;;;;;;6.33;78.75;103157.47;5112453;28;20027;-71
2022/03/26 07:22:30;;;;;;;48.15;25.80;;;;;;;6.27;78.22;103165.06;5110955;28;20100;-71
2022/03/26 07:24:55;;;;;;;51.35;27.05;;;;;;;6.30;78.74;103157.38;5111881;28;20475;-71
2022/03/26 07:27:20;;;;;;;53.10;26.70;;;;;;;6.30;77.44;103154.78;5111013;28;20039;-71
2022/03/26 07:29:48;;;;;;;50.38;26.42;;;;;;;6.37;77.62;103152.41;5111600;28;20024;-71
2022/03/26 07:32:14;;;;;;;53.90;26.05;;;;;;;6.44;77.79;103154.34;5111906;28;20043;-71
2022/03/26 07:34:39;;;;;;;52.30;25.75;;;;;;;6.52;77.77;103158.06;5111012;28;20558;-71
2022/03/26 07:37:05;;;;;;;46.15;25.45;;;;;;;6.59;77.05;103154.81;5112086;28;20024;-71
2022/03/26 07:39:30;;;;;;;47.80;24.60;;;;;;;6.68;76.63;103165.47;5111535;28;20054;-71
2022/03/26 07:41:55;;;;;;;64.00;26.10;;;;;;;6.75;76.72;103158.75;5110901;28;20032;-71
2022/03/26 07:44:20;;;;;;;59.22;25.83;;;;;;;6.90;76.51;103169.56;5111512;28;20020;-71
2022/03/26 07:46:46;;;;;;;49.00;24.65;;;;;;;7.00;76.55;103170.72;5111638;28;20039;-71
2022/03/26 07:49:11;;;;;;;47.30;25.38;;;;;;;7.10;75.63;103164.94;5110965;28;20020;-71
2022/03/26 07:51:37;;;;;;;46.47;25.23;;;;;;;7.19;74.94;103170.41;5111687;28;20020;-71
2022/03/26 07:54:02;;;;;;;49.53;24.85;;;;;;;7.33;74.94;103156.91;5111919;28;20502;-71
2022/03/26 07:56:27;;;;;;;51.90;24.40;;;;;;;7.46;74.43;103169.38;5110652;28;20023;-71
2022/03/26 07:58:54;;;;;;;57.33;26.05;;;;;;;7.59;73.73;103163.66;5112560;28;20020;-71
2022/03/26 08:01:23;;;;;;;47.50;24.33;;;;;;;7.66;73.64;103165.56;5115461;28;20035;-72
2022/03/26 08:03:53;;;;;;;45.22;23.95;;;;;;;7.86;73.38;103170.41;5114751;28;20031;-71
2022/03/26 08:06:19;;;;;;;45.13;23.80;;;;;;;7.95;73.08;103178.44;5115345;28;20034;-71
2022/03/26 08:08:44;;;;;;;50.60;23.95;;;;;;;8.07;72.72;103168.31;5115313;28;20020;-71
2022/03/26 08:11:09;;;;;;;54.70;25.42;;;;;;;8.20;71.97;103170.34;5114485;28;20032;-71
2022/03/26 08:13:34;;;;;;;52.65;24.83;;;;;;;8.37;71.94;103164.66;5115209;28;20464;-71
2022/03/26 08:16:00;;;;;;;48.88;23.40;;;;;;;8.48;71.33;103168.44;5115277;28;20020;-72
2022/03/26 08:18:25;;;;;;;53.50;24.90;;;;;;;8.62;71.30;103168.72;5114371;28;20055;-71
2022/03/26 08:20:50;;;;;;;48.03;23.27;;;;;;;8.70;70.82;103169.78;5114922;28;20066;-71
2022/03/26 08:23:16;;;;;;;45.85;22.73;;;;;;;8.83;69.87;103171.81;5115181;28;20031;-71
2022/03/26 08:28:25;;;;;;;45.83;22.27;;;;;;;9.10;69.21;103178.41;5115202;28;20045;-71
2022/03/26 08:30:50;;;;;;;43.20;21.50;;;;;;;9.24;68.06;103170.88;5113957;28;20027;-71
2022/03/26 08:33:16;;;;;;;38.13;21.42;;;;;;;9.43;67.68;103170.38;5114893;28;20019;-71
2022/03/26 08:35:42;;;;;;;41.05;19.67;;;;;;;9.66;67.52;103177.72;5115112;28;20034;-71
2022/03/26 08:38:08;;;;;;;39.10;21.08;;;;;;;9.79;66.76;103169.28;5114359;28;20023;-71
2022/03/26 08:40:34;;;;;;;38.50;20.02;;;;;;;9.91;65.11;103171.19;5114641;28;20039;-71
2022/03/26 08:43:00;;;;;;;41.47;20.88;;;;;;;10.06;65.86;103176.66;5114802;28;20023;-71
2022/03/26 08:45:30;;;;;;;44.72;21.50;;;;;;;10.24;64.92;103179.56;5113845;28;20486;-71
2022/03/26 08:47:55;;;;;;;36.13;20.08;;;;;;;10.39;64.87;103171.09;5114421;28;20050;-72
2022/03/26 08:50:22;;;;;;;41.28;20.40;;;;;;;10.51;63.59;103180.84;5114360;27;20023;-71
2022/03/26 08:52:50;;;;;;;41.53;20.30;;;;;;;10.68;64.14;103181.94;5113738;28;20102;-72
2022/03/26 08:55:16;;;;;;;37.38;21.00;;;;;;;10.83;63.65;103186.50;5114305;28;20080;-72
2022/03/26 08:57:42;;;;;;;44.22;22.30;;;;;;;10.88;63.39;103176.97;5114204;28;20096;-71
2022/03/26 09:00:08;;;;;;;43.35;22.00;;;;;;;11.02;62.67;103180.66;5113764;28;20028;-71
2022/03/26 09:02:34;;;;;;;41.03;22.23;;;;;;;11.12;61.87;103170.31;5114434;28;20035;-71
2022/03/26 09:04:59;;;;;;;41.40;22.90;;;;;;;11.25;61.79;103177.44;5114252;28;20110;-71
2022/03/26 09:07:25;;;;;;;42.65;22.30;;;;;;;11.33;61.86;103177.50;5113308;28;20011;-72
2022/03/26 09:09:50;;;;;;;40.75;21.35;;;;;;;11.45;62.12;103178.50;5113551;28;20034;-71
2022/03/26 09:12:15;;;;;;;43.60;21.70;;;;;;;11.56;60.78;103180.34;5113785;28;20027;-71
2022/03/26 09:14:40;;;;;;;41.05;21.63;;;;;;;11.70;60.68;103184.81;5113231;28;20544;-71
2022/03/26 09:17:06;;;;;;;37.47;21.38;;;;;;;11.85;59.77;103178.91;5114241;28;20020;-72
2022/03/26 09:19:31;;;;;;;37.17;20.55;;;;;;;11.95;59.39;103180.72;5113876;28;20027;-72
2022/03/26 09:21:56;;;;;;;43.17;22.50;;;;;;;12.06;59.21;103183.41;5113159;28;20482;-71
2022/03/26 09:24:23;;;;;;;39.92;23.20;;;;;;;12.21;59.02;103185.28;5113729;28;20028;-72
2022/03/26 09:26:48;;;;;;;43.45;22.50;;;;;;;12.36;59.98;103187.13;5113851;28;20486;-71
2022/03/26 09:29:13;;;;;;;53.60;23.02;;;;;;;12.51;58.60;103186.34;5112899;28;20012;-72
2022/03/26 09:31:38;;;;;;;41.30;23.58;;;;;;;12.63;57.81;103191.66;5113413;28;20386;-72
2022/03/26 09:34:04;;;;;;;47.13;23.20;;;;;;;12.73;57.12;103190.84;5112933;28;20020;-71
2022/03/26 09:36:29;;;;;;;42.05;22.45;;;;;;;12.80;56.94;103179.53;5113278;28;20402;-71
2022/03/26 09:38:54;;;;;;;41.55;23.85;;;;;;;12.84;57.39;103178.66;5113542;28;20031;-71
2022/03/26 09:41:22;;;;;;;50.65;25.40;;;;;;;12.95;57.29;103189.19;5112568;28;20066;-72
2022/03/26 09:43:48;;;;;;;45.97;24.58;;;;;;;13.13;56.16;103181.38;5113656;28;20051;-72
2022/03/26 09:46:14;;;;;;;47.45;25.73;;;;;;;13.24;55.40;103181.47;5113323;28;20374;-72
2022/03/26 09:48:40;;;;;;;40.38;23.40;;;;;;;13.40;55.41;103181.50;5112167;28;20052;-72
2022/03/26 09:51:07;;;;;;;49.22;25.27;;;;;;;13.47;54.79;103184.16;5113563;28;20064;-72
2022/03/26 09:53:34;;;;;;;48.50;24.67;;;;;;;13.53;54.52;103173.63;5113065;28;20055;-72
2022/03/26 09:56:00;;;;;;;46.53;22.40;;;;;;;13.59;54.32;103175.41;5112729;28;20028;-71
2022/03/26 09:58:25;;;;;;;40.08;22.42;;;;;;;13.70;54.59;103160.56;5113272;28;20023;-71
2022/03/26 10:00:53;;;;;;;40.63;22.13;;;;;;;13.87;54.66;103167.56;5113308;28;20023;-72
2022/03/26 10:03:19;;;;;;;43.17;22.30;;;;;;;13.95;53.34;103165.81;5112254;28;20045;-72
2022/03/26 10:05:44;;;;;;;44.92;23.33;;;;;;;14.03;52.79;103164.94;5113135;28;20164;-72
2022/03/26 10:08:20;;;;;;;43.35;23.23;;;;;;;14.15;53.54;103164.03;5112900;28;20506;-72
2022/03/26 10:10:50;;;;;;;47.67;26.13;;;;;;;14.29;52.96;103169.28;5112270;28;20070;-72
2022/03/26 10:13:42;;;;;;;55.33;26.77;;;;;;;14.37;53.27;103171.88;5112994;28;20027;-72
2022/03/26 10:16:10;;;;;;;48.85;24.70;;;;;;;14.46;51.78;103164.84;5112354;28;20371;-71
2022/03/26 10:18:41;;;;;;;37.92;24.80;;;;;;;14.61;52.13;103168.31;5112995;27;20494;-72
2022/03/26 10:21:13;;;;;;;38.53;22.48;;;;;;;14.62;51.16;103176.22;5113235;28;20203;-72
2022/03/26 10:23:42;;;;;;;40.28;22.90;;;;;;;14.64;51.00;103166.56;5111251;28;20039;-72
2022/03/26 10:26:25;;;;;;;40.65;21.10;;;;;;;14.77;51.65;103170.03;5113114;28;20020;-72
2022/03/26 10:28:56;;;;;;;36.28;19.52;;;;;;;14.82;49.72;103172.66;5112684;28;20032;-71
2022/03/26 10:34:11;;;;;;;39.20;20.20;;;;;;;14.89;49.81;103155.97;5113005;28;20039;-72
2022/03/26 10:36:45;;;;;;;31.63;17.77;;;;;;;15.08;49.63;103168.13;5112531;28;20024;-72
2022/03/26 10:39:21;;;;;;;34.08;19.63;;;;;;;15.15;47.84;103156.72;5112163;28;20466;-72
2022/03/26 10:41:47;;;;;;;30.33;17.73;;;;;;;15.26;47.17;103163.66;5112547;28;20114;-72
2022/03/26 10:44:18;;;;;;;33.80;17.17;;;;;;;15.41;46.18;103163.56;5112268;28;20031;-72
2022/03/26 10:46:51;;;;;;;27.42;15.23;;;;;;;15.44;44.08;103150.41;5112023;28;20047;-72
2022/03/26 10:49:26;;;;;;;28.38;15.85;;;;;;;15.49;45.85;103164.38;5112281;28;20077;-72
2022/03/26 10:51:53;;;;;;;33.72;17.38;;;;;;;15.59;44.84;103152.91;5111190;28;20052;-72
2022/03/26 10:54:26;;;;;;;29.38;15.60;;;;;;;15.66;44.09;103143.19;5111894;28;20407;-72
2022/03/26 10:56:52;;;;;;;28.80;17.35;;;;;;;15.73;44.07;103144.06;5112305;28;20089;-72
2022/03/26 10:59:17;;;;;;;34.33;17.52;;;;;;;15.86;45.52;103150.97;5111318;28;20050;-72
2022/03/26 11:01:43;;;;;;;34.60;17.77;;;;;;;16.01;43.04;103140.28;5112018;28;20027;-72
2022/03/26 11:04:08;;;;;;;28.60;15.75;;;;;;;16.15;41.30;103143.69;5112294;28;20498;-72
2022/03/26 11:06:38;;;;;;;25.15;13.70;;;;;;;16.25;41.21;103140.94;5110996;28;20174;-71
2022/03/26 11:09:04;;;;;;;27.80;14.68;;;;;;;16.31;40.65;103139.09;5112427;28;20106;-72
2022/03/26 11:11:29;;;;;;;31.02;13.75;;;;;;;16.40;40.98;103138.13;5111818;28;20131;-72
2022/03/26 11:14:02;;;;;;;25.73;13.07;;;;;;;16.45;40.77;103138.97;5111254;28;20129;-72